GWTJC LDPL-LDSB

Flight info

Callsign GWTJC
Flight time 1h 14m
Altitude 7000
Route LOS N606 ZDA L607 SPL
Aircraft DA42/L-SBDGRY/S

Departure

Time 2026-04-25 13:20
Airport Pula Airport (LDPL)

Arrival

Time 2026-04-25 14:35
Airport Brač Airport (LDSB)
Time Latitude Longitude Altitude Speed Heading
2026-04-25 12:44 44.89675 13.92139 251 ft 0 kts
2026-04-25 13:13 44.89681 13.92145 224 ft 3 kts 91°
2026-04-25 13:13 44.89656 13.92164 225 ft 6 kts 204°
2026-04-25 13:13 44.89628 13.92153 224 ft 6 kts 115°
2026-04-25 13:13 44.89626 13.92202 226 ft 4 kts 92°
2026-04-25 13:14 44.89615 13.92254 227 ft 8 kts 144°
2026-04-25 13:14 44.89579 13.92288 228 ft 6 kts 102°
2026-04-25 13:14 44.89577 13.92336 230 ft 4 kts 89°
2026-04-25 13:14 44.89580 13.92387 231 ft 7 kts 96°
2026-04-25 13:15 44.89580 13.92477 234 ft 10 kts 88°
2026-04-25 13:15 44.89582 13.92587 237 ft 12 kts 90°
2026-04-25 13:15 44.89584 13.92703 240 ft 12 kts 88°
2026-04-25 13:15 44.89585 13.92807 243 ft 8 kts 94°
2026-04-25 13:16 44.89561 13.92861 244 ft 6 kts 164°
2026-04-25 13:16 44.89510 13.92864 244 ft 8 kts 179°
2026-04-25 13:16 44.89471 13.92865 244 ft 2 kts 179°
2026-04-25 13:16 44.89469 13.92865 244 ft 0 kts 179°
2026-04-25 13:18 44.89465 13.92865 244 ft 3 kts 179°
2026-04-25 13:18 44.89418 13.92867 244 ft 10 kts 180°
2026-04-25 13:18 44.89367 13.92859 244 ft 6 kts 246°
2026-04-25 13:19 44.89367 13.92829 243 ft 0 kts 268°
2026-04-25 13:19 44.89364 13.92764 240 ft 32 kts 270°
2026-04-25 13:19 44.89358 13.92406 230 ft 73 kts 268°
2026-04-25 13:20 44.89348 13.91251 476 ft 94 kts 268°
2026-04-25 13:20 44.89327 13.90284 742 ft 102 kts 265°
2026-04-25 13:20 44.89281 13.89282 1093 ft 101 kts 264°
2026-04-25 13:20 44.89243 13.88298 1507 ft 100 kts 268°
2026-04-25 13:21 44.89240 13.87305 1914 ft 102 kts 269°
2026-04-25 13:21 44.89239 13.86303 2292 ft 102 kts 268°
2026-04-25 13:21 44.89224 13.85311 2675 ft 101 kts 263°
2026-04-25 13:21 44.89146 13.84313 3008 ft 103 kts 265°
2026-04-25 13:22 44.89138 13.83282 3380 ft 106 kts 272°
2026-04-25 13:22 44.89119 13.82259 3799 ft 103 kts 268°
2026-04-25 13:22 44.89061 13.81260 4245 ft 103 kts 269°
2026-04-25 13:23 44.89017 13.79242 4931 ft 104 kts 265°
2026-04-25 13:23 44.88974 13.78236 5231 ft 105 kts 275°
2026-04-25 13:23 44.88998 13.77210 5552 ft 103 kts 270°
2026-04-25 13:23 44.88838 13.76258 5876 ft 102 kts 237°
2026-04-25 13:24 44.88230 13.75722 6153 ft 108 kts 194°
2026-04-25 13:24 44.87468 13.75587 6425 ft 112 kts 193°
2026-04-25 13:24 44.86703 13.75509 6741 ft 110 kts 184°
2026-04-25 13:24 44.85920 13.75535 6970 ft 116 kts 183°
2026-04-25 13:25 44.85051 13.75546 7017 ft 137 kts 185°
2026-04-25 13:25 44.84045 13.75559 7044 ft 151 kts 181°
2026-04-25 13:25 44.82957 13.75604 6998 ft 160 kts 181°
2026-04-25 13:25 44.81837 13.75624 6989 ft 160 kts 180°
2026-04-25 13:26 44.80726 13.75673 6986 ft 160 kts 182°
2026-04-25 13:26 44.79609 13.75748 6981 ft 161 kts 178°
2026-04-25 13:26 44.78497 13.75868 6980 ft 161 kts 173°
2026-04-25 13:26 44.77459 13.76445 6984 ft 164 kts 148°
2026-04-25 13:27 44.76692 13.77605 6983 ft 166 kts 121°
2026-04-25 13:27 44.76174 13.79079 6989 ft 166 kts 116°
2026-04-25 13:27 44.75680 13.80546 6991 ft 166 kts 116°
2026-04-25 13:27 44.75184 13.82014 6990 ft 166 kts 116°
2026-04-25 13:28 44.74693 13.83459 6986 ft 166 kts 116°
2026-04-25 13:28 44.74355 13.84451 6989 ft 166 kts 116°
2026-04-25 13:28 44.73687 13.86412 6990 ft 166 kts 116°
2026-04-25 13:28 44.73189 13.87875 6985 ft 166 kts 116°
2026-04-25 13:29 44.72690 13.89338 6988 ft 166 kts 116°
2026-04-25 13:29 44.72192 13.90800 6989 ft 166 kts 116°
2026-04-25 13:29 44.71700 13.92239 6987 ft 166 kts 116°
2026-04-25 13:30 44.70699 13.95169 6989 ft 166 kts 116°
2026-04-25 13:30 44.70199 13.96632 6988 ft 166 kts 116°
2026-04-25 13:30 44.69698 13.98096 6985 ft 166 kts 116°
2026-04-25 13:31 44.68696 14.01021 6991 ft 166 kts 116°
2026-04-25 13:31 44.68193 14.02489 6989 ft 166 kts 116°
2026-04-25 13:31 44.67692 14.03952 6988 ft 166 kts 116°
2026-04-25 13:31 44.67190 14.05415 6988 ft 166 kts 116°
2026-04-25 13:32 44.66689 14.06875 6984 ft 166 kts 116°
2026-04-25 13:32 44.66189 14.08330 6984 ft 166 kts 116°
2026-04-25 13:32 44.65685 14.09795 6987 ft 166 kts 116°
2026-04-25 13:32 44.65183 14.11257 6984 ft 166 kts 116°
2026-04-25 13:33 44.64682 14.12713 6985 ft 166 kts 116°
2026-04-25 13:33 44.64180 14.14170 6984 ft 166 kts 116°
2026-04-25 13:33 44.63679 14.15626 6984 ft 165 kts 116°
2026-04-25 13:33 44.63349 14.16585 6983 ft 166 kts 116°
2026-04-25 13:34 44.62676 14.18536 6987 ft 166 kts 116°
2026-04-25 13:34 44.62175 14.19989 6981 ft 165 kts 116°
2026-04-25 13:34 44.61673 14.21444 6986 ft 165 kts 116°
2026-04-25 13:34 44.61172 14.22894 6985 ft 165 kts 116°
2026-04-25 13:35 44.60670 14.24347 6985 ft 165 kts 116°
2026-04-25 13:35 44.60169 14.25795 6985 ft 165 kts 116°
2026-04-25 13:35 44.59669 14.27241 6987 ft 165 kts 116°
2026-04-25 13:35 44.59168 14.28689 6985 ft 165 kts 116°
2026-04-25 13:36 44.58667 14.30137 6991 ft 165 kts 116°
2026-04-25 13:36 44.58161 14.31595 6989 ft 168 kts 116°
2026-04-25 13:36 44.57653 14.33063 6985 ft 166 kts 116°
2026-04-25 13:36 44.57151 14.34507 6987 ft 164 kts 116°
2026-04-25 13:37 44.56654 14.35939 6986 ft 163 kts 116°
2026-04-25 13:37 44.56160 14.37363 6992 ft 163 kts 117°
2026-04-25 13:37 44.55656 14.38809 6991 ft 165 kts 116°
2026-04-25 13:37 44.55154 14.40257 6989 ft 166 kts 116°
2026-04-25 13:38 44.54658 14.41689 6985 ft 164 kts 116°
2026-04-25 13:38 44.54161 14.43117 6987 ft 163 kts 116°
2026-04-25 13:38 44.53664 14.44544 6995 ft 163 kts 117°
2026-04-25 13:38 44.53152 14.46011 6996 ft 167 kts 116°
2026-04-25 13:39 44.52629 14.47444 6992 ft 168 kts 124°
2026-04-25 13:39 44.51980 14.48803 6998 ft 168 kts 124°
2026-04-25 13:39 44.51332 14.50166 6991 ft 167 kts 124°
2026-04-25 13:39 44.50687 14.51512 6993 ft 166 kts 124°
2026-04-25 13:40 44.50048 14.52853 6995 ft 165 kts 124°
2026-04-25 13:40 44.49412 14.54190 6991 ft 164 kts 124°
2026-04-25 13:40 44.48775 14.55519 6986 ft 164 kts 124°
2026-04-25 13:40 44.48143 14.56840 6990 ft 163 kts 124°
2026-04-25 13:41 44.47515 14.58154 6990 ft 162 kts 124°
2026-04-25 13:41 44.46889 14.59460 6987 ft 161 kts 124°
2026-04-25 13:41 44.46266 14.60760 6988 ft 161 kts 124°
2026-04-25 13:41 44.45641 14.62063 6986 ft 161 kts 124°
2026-04-25 13:42 44.45019 14.63359 6986 ft 160 kts 124°
2026-04-25 13:42 44.44399 14.64651 6988 ft 160 kts 124°
2026-04-25 13:42 44.43776 14.65949 6988 ft 160 kts 124°
2026-04-25 13:42 44.43155 14.67242 6989 ft 160 kts 124°
2026-04-25 13:43 44.42534 14.68535 6988 ft 160 kts 124°
2026-04-25 13:43 44.41913 14.69826 6993 ft 160 kts 124°
2026-04-25 13:43 44.41291 14.71119 6989 ft 160 kts 124°
2026-04-25 13:43 44.40671 14.72409 6985 ft 160 kts 124°
2026-04-25 13:44 44.40050 14.73697 6987 ft 160 kts 124°
2026-04-25 13:44 44.39430 14.74986 6989 ft 160 kts 124°
2026-04-25 13:44 44.38809 14.76274 6990 ft 160 kts 124°
2026-04-25 13:44 44.38189 14.77560 6986 ft 160 kts 124°
2026-04-25 13:45 44.37566 14.78851 6991 ft 161 kts 124°
2026-04-25 13:45 44.36937 14.80156 6989 ft 162 kts 124°
2026-04-25 13:45 44.36303 14.81460 6997 ft 163 kts 124°
2026-04-25 13:45 44.35671 14.82779 6987 ft 163 kts 124°
2026-04-25 13:46 44.35042 14.84087 6989 ft 162 kts 124°
2026-04-25 13:46 44.34413 14.85388 6989 ft 161 kts 124°
2026-04-25 13:46 44.33787 14.86683 6989 ft 161 kts 124°
2026-04-25 13:46 44.33162 14.87976 6989 ft 161 kts 124°
2026-04-25 13:47 44.32536 14.89268 6985 ft 161 kts 124°
2026-04-25 13:47 44.31911 14.90560 6989 ft 161 kts 124°
2026-04-25 13:47 44.31285 14.91852 6985 ft 161 kts 124°
2026-04-25 13:47 44.30657 14.93147 6982 ft 161 kts 124°
2026-04-25 13:48 44.30040 14.94422 6986 ft 161 kts 124°
2026-04-25 13:48 44.29413 14.95716 6986 ft 161 kts 124°
2026-04-25 13:48 44.28785 14.97008 6988 ft 161 kts 124°
2026-04-25 13:48 44.28157 14.98302 6987 ft 161 kts 124°
2026-04-25 13:49 44.27528 14.99599 6982 ft 161 kts 124°
2026-04-25 13:49 44.26900 15.00892 6987 ft 161 kts 124°
2026-04-25 13:49 44.26270 15.02187 6985 ft 161 kts 124°
2026-04-25 13:49 44.25641 15.03481 6983 ft 161 kts 124°
2026-04-25 13:50 44.25011 15.04776 6984 ft 161 kts 124°
2026-04-25 13:50 44.24380 15.06073 6990 ft 162 kts 124°
2026-04-25 13:50 44.23748 15.07372 6983 ft 162 kts 124°
2026-04-25 13:50 44.23116 15.08670 6983 ft 162 kts 124°
2026-04-25 13:51 44.22486 15.09963 6985 ft 161 kts 124°
2026-04-25 13:51 44.21861 15.11245 6987 ft 161 kts 124°
2026-04-25 13:51 44.21231 15.12537 6984 ft 161 kts 124°
2026-04-25 13:51 44.20601 15.13828 6986 ft 161 kts 124°
2026-04-25 13:52 44.19969 15.15122 6981 ft 162 kts 123°
2026-04-25 13:52 44.19339 15.16413 6987 ft 162 kts 123°
2026-04-25 13:52 44.18698 15.17724 6997 ft 166 kts 123°
2026-04-25 13:52 44.18042 15.19064 6991 ft 167 kts 124°
2026-04-25 13:53 44.17391 15.20397 6989 ft 166 kts 124°
2026-04-25 13:53 44.16738 15.21728 6988 ft 166 kts 123°
2026-04-25 13:53 44.16088 15.23061 6992 ft 166 kts 123°
2026-04-25 13:53 44.15435 15.24390 6995 ft 167 kts 123°
2026-04-25 13:54 44.14778 15.25730 6991 ft 167 kts 123°
2026-04-25 13:54 44.14127 15.27062 6988 ft 165 kts 123°
2026-04-25 13:54 44.13479 15.28384 6987 ft 165 kts 123°
2026-04-25 13:54 44.12838 15.29694 6985 ft 163 kts 123°
2026-04-25 13:55 44.12198 15.30998 6991 ft 162 kts 123°
2026-04-25 13:55 44.11558 15.32301 6995 ft 164 kts 123°
2026-04-25 13:55 44.10913 15.33612 6981 ft 164 kts 123°
2026-04-25 13:55 44.10271 15.34922 6985 ft 164 kts 123°
2026-04-25 13:56 44.09629 15.36225 6984 ft 163 kts 124°
2026-04-25 13:56 44.08888 15.37432 6987 ft 165 kts 130°
2026-04-25 13:56 44.08135 15.38639 6991 ft 166 kts 130°
2026-04-25 13:56 44.07381 15.39848 6989 ft 166 kts 130°
2026-04-25 13:57 44.06447 15.40759 7002 ft 164 kts 155°
2026-04-25 13:57 44.06122 15.41006 6994 ft 165 kts 145°
2026-04-25 13:57 44.05079 15.43177 6998 ft 165 kts 122°
2026-04-25 13:57 44.04374 15.44466 6994 ft 166 kts 129°
2026-04-25 13:58 44.03617 15.45677 6997 ft 166 kts 130°
2026-04-25 13:58 44.02863 15.46865 6997 ft 166 kts 130°
2026-04-25 13:58 44.02103 15.48071 6994 ft 165 kts 130°
2026-04-25 13:58 44.01348 15.49274 6998 ft 166 kts 130°
2026-04-25 13:59 44.00587 15.50480 6995 ft 166 kts 130°
2026-04-25 13:59 43.99827 15.51693 6995 ft 166 kts 130°
2026-04-25 13:59 43.99064 15.52910 6992 ft 167 kts 130°
2026-04-25 13:59 43.98305 15.54120 6991 ft 166 kts 130°
2026-04-25 14:00 43.97791 15.54940 6995 ft 167 kts 130°
2026-04-25 14:00 43.96785 15.56540 6998 ft 166 kts 130°
2026-04-25 14:00 43.96019 15.57753 6991 ft 167 kts 130°
2026-04-25 14:00 43.95257 15.58963 6985 ft 166 kts 130°
2026-04-25 14:01 43.94499 15.60165 6984 ft 165 kts 129°
2026-04-25 14:01 43.93740 15.61369 6982 ft 165 kts 129°
2026-04-25 14:01 43.92986 15.62568 6989 ft 166 kts 129°
2026-04-25 14:01 43.92226 15.63778 6986 ft 166 kts 130°
2026-04-25 14:02 43.91467 15.64978 6990 ft 165 kts 130°
2026-04-25 14:02 43.90709 15.66178 6986 ft 165 kts 130°
2026-04-25 14:02 43.89955 15.67371 6989 ft 164 kts 129°
2026-04-25 14:02 43.89701 15.67775 6986 ft 164 kts 129°
2026-04-25 14:03 43.88450 15.69750 6987 ft 164 kts 129°
2026-04-25 14:03 43.87697 15.70940 6992 ft 165 kts 129°
2026-04-25 14:03 43.86937 15.72139 6987 ft 166 kts 129°
2026-04-25 14:03 43.86178 15.73340 6986 ft 166 kts 129°
2026-04-25 14:04 43.85422 15.74539 6983 ft 164 kts 130°
2026-04-25 14:04 43.84674 15.75720 6982 ft 162 kts 129°
2026-04-25 14:04 43.83932 15.76891 6984 ft 161 kts 129°
2026-04-25 14:04 43.83189 15.78064 6983 ft 163 kts 129°
2026-04-25 14:05 43.82444 15.79241 6983 ft 162 kts 129°
2026-04-25 14:05 43.81699 15.80413 6985 ft 163 kts 129°
2026-04-25 14:05 43.80956 15.81584 6982 ft 164 kts 129°
2026-04-25 14:05 43.80205 15.82766 6984 ft 163 kts 129°
2026-04-25 14:06 43.79452 15.83950 6989 ft 165 kts 129°
2026-04-25 14:06 43.78694 15.85143 6983 ft 165 kts 129°
2026-04-25 14:06 43.77930 15.86342 6992 ft 168 kts 129°
2026-04-25 14:06 43.77406 15.87169 6992 ft 170 kts 129°
2026-04-25 14:07 43.76373 15.88789 6992 ft 169 kts 129°
2026-04-25 14:07 43.75848 15.89618 6987 ft 169 kts 129°
2026-04-25 14:07 43.75076 15.90834 6985 ft 168 kts 129°
2026-04-25 14:07 43.74319 15.92022 6989 ft 166 kts 129°
2026-04-25 14:08 43.73557 15.93217 6985 ft 166 kts 129°
2026-04-25 14:08 43.72795 15.94411 6987 ft 166 kts 129°
2026-04-25 14:08 43.72029 15.95610 6982 ft 167 kts 129°
2026-04-25 14:08 43.71265 15.96809 6979 ft 166 kts 129°
2026-04-25 14:09 43.70504 15.98004 6981 ft 166 kts 129°
2026-04-25 14:09 43.69744 15.99195 6980 ft 164 kts 129°
2026-04-25 14:09 43.68987 16.00379 6981 ft 165 kts 129°
2026-04-25 14:09 43.68484 16.01165 6980 ft 165 kts 129°
2026-04-25 14:10 43.67464 16.02763 6985 ft 166 kts 129°
2026-04-25 14:10 43.66695 16.03963 6981 ft 168 kts 129°
2026-04-25 14:10 43.65919 16.05173 6975 ft 167 kts 129°
2026-04-25 14:10 43.65157 16.06363 6969 ft 164 kts 129°
2026-04-25 14:11 43.64403 16.07547 6981 ft 165 kts 128°
2026-04-25 14:11 43.63633 16.08744 6974 ft 166 kts 129°
2026-04-25 14:11 43.62872 16.09934 6971 ft 165 kts 129°
2026-04-25 14:11 43.62109 16.11121 6978 ft 166 kts 129°
2026-04-25 14:12 43.61338 16.12320 6976 ft 168 kts 129°
2026-04-25 14:12 43.60566 16.13527 6978 ft 169 kts 129°
2026-04-25 14:12 43.59781 16.14751 6968 ft 170 kts 129°
2026-04-25 14:12 43.58997 16.15967 6963 ft 169 kts 129°
2026-04-25 14:13 43.58219 16.17179 6967 ft 168 kts 129°
2026-04-25 14:13 43.57449 16.18380 6958 ft 166 kts 129°
2026-04-25 14:13 43.56694 16.19554 6966 ft 166 kts 129°
2026-04-25 14:13 43.55936 16.20737 6964 ft 165 kts 129°
2026-04-25 14:14 43.55174 16.21918 6966 ft 164 kts 129°
2026-04-25 14:14 43.54417 16.23089 6962 ft 163 kts 129°
2026-04-25 14:14 43.53667 16.24253 6959 ft 161 kts 129°
2026-04-25 14:14 43.52929 16.25400 6960 ft 159 kts 128°
2026-04-25 14:15 43.52192 16.26543 6958 ft 160 kts 129°
2026-04-25 14:15 43.51703 16.27302 6961 ft 160 kts 129°
2026-04-25 14:15 43.50710 16.28842 6963 ft 161 kts 129°
2026-04-25 14:15 43.49959 16.30004 6961 ft 163 kts 129°
2026-04-25 14:16 43.49258 16.31222 6960 ft 161 kts 124°
2026-04-25 14:16 43.48568 16.32448 6966 ft 163 kts 125°
2026-04-25 14:16 43.47872 16.33682 6963 ft 163 kts 124°
2026-04-25 14:16 43.47183 16.34912 6960 ft 161 kts 124°
2026-04-25 14:17 43.46502 16.36135 6964 ft 161 kts 125°
2026-04-25 14:17 43.45826 16.37354 6964 ft 160 kts 124°
2026-04-25 14:17 43.45150 16.38573 6959 ft 160 kts 124°
2026-04-25 14:17 43.44472 16.39789 6963 ft 160 kts 124°
2026-04-25 14:18 43.43793 16.41004 6962 ft 160 kts 124°
2026-04-25 14:18 43.43114 16.42218 6965 ft 161 kts 124°
2026-04-25 14:18 43.42428 16.43442 6964 ft 161 kts 124°
2026-04-25 14:18 43.41741 16.44667 6964 ft 162 kts 124°
2026-04-25 14:19 43.41053 16.45896 6963 ft 162 kts 124°
2026-04-25 14:19 43.40365 16.47122 6966 ft 162 kts 124°
2026-04-25 14:19 43.39677 16.48348 6984 ft 162 kts 124°
2026-04-25 14:19 43.38987 16.49579 6985 ft 162 kts 124°
2026-04-25 14:20 43.38299 16.50806 6989 ft 162 kts 124°
2026-04-25 14:20 43.37840 16.51628 6992 ft 165 kts 125°
2026-04-25 14:20 43.36896 16.53304 6993 ft 167 kts 125°
2026-04-25 14:20 43.36184 16.54565 6985 ft 165 kts 124°
2026-04-25 14:21 43.35482 16.55814 6984 ft 165 kts 124°
2026-04-25 14:21 43.34780 16.57060 6788 ft 164 kts 124°
2026-04-25 14:21 43.34090 16.58291 6596 ft 161 kts 124°
2026-04-25 14:21 43.33413 16.59505 6400 ft 160 kts 124°
2026-04-25 14:22 43.32740 16.60701 6201 ft 157 kts 125°
2026-04-25 14:22 43.32070 16.61891 6004 ft 158 kts 124°
2026-04-25 14:22 43.31396 16.63086 5798 ft 159 kts 126°
2026-04-25 14:22 43.30715 16.64294 5590 ft 159 kts 125°
2026-04-25 14:23 43.30046 16.65491 5392 ft 156 kts 125°
2026-04-25 14:23 43.29380 16.66676 5195 ft 157 kts 125°
2026-04-25 14:23 43.28723 16.67856 5006 ft 154 kts 122°
2026-04-25 14:23 43.28176 16.69072 4999 ft 148 kts 120°
2026-04-25 14:24 43.27613 16.70281 4823 ft 152 kts 121°
2026-04-25 14:24 43.27050 16.71496 4622 ft 150 kts 120°
2026-04-25 14:24 43.26494 16.72702 4417 ft 149 kts 121°
2026-04-25 14:24 43.25948 16.73883 4218 ft 148 kts 121°
2026-04-25 14:25 43.25401 16.75080 4018 ft 148 kts 121°
2026-04-25 14:25 43.24868 16.76248 4001 ft 143 kts 121°
2026-04-25 14:25 43.24435 16.77453 3997 ft 140 kts 101°
2026-04-25 14:25 43.24396 16.78337 4000 ft 136 kts 79°
2026-04-25 14:26 43.24920 16.79824 4003 ft 130 kts 41°
2026-04-25 14:26 43.25647 16.80522 4004 ft 127 kts 27°
2026-04-25 14:26 43.26406 16.81153 3999 ft 128 kts 27°
2026-04-25 14:26 43.27166 16.81784 4016 ft 130 kts 27°
2026-04-25 14:27 43.27972 16.82458 3986 ft 134 kts 28°
2026-04-25 14:27 43.28756 16.83112 3994 ft 131 kts 27°
2026-04-25 14:27 43.29536 16.83760 3995 ft 132 kts 28°
2026-04-25 14:27 43.30331 16.84419 3998 ft 134 kts 27°
2026-04-25 14:28 43.31134 16.85089 3993 ft 135 kts 28°
2026-04-25 14:28 43.31936 16.85760 3998 ft 134 kts 28°
2026-04-25 14:28 43.32739 16.86432 4000 ft 136 kts 26°
2026-04-25 14:28 43.33624 16.86763 3981 ft 128 kts 358°
2026-04-25 14:29 43.34453 16.86537 3987 ft 119 kts 333°
2026-04-25 14:29 43.35116 16.85880 3959 ft 119 kts 311°
2026-04-25 14:29 43.35540 16.84867 3747 ft 125 kts 292°
2026-04-25 14:29 43.35839 16.83759 3553 ft 126 kts 291°
2026-04-25 14:30 43.36140 16.82631 3361 ft 125 kts 290°
2026-04-25 14:30 43.36732 16.80410 2992 ft 121 kts 289°
2026-04-25 14:30 43.37004 16.79388 2987 ft 109 kts 289°
2026-04-25 14:31 43.37263 16.78408 2990 ft 110 kts 289°
2026-04-25 14:31 43.37385 16.77372 2987 ft 112 kts 266°
2026-04-25 14:31 43.37114 16.76339 2852 ft 123 kts 238°
2026-04-25 14:31 43.36473 16.75572 2800 ft 121 kts 220°
2026-04-25 14:32 43.35781 16.74906 2814 ft 124 kts 220°
2026-04-25 14:32 43.35047 16.74195 2791 ft 131 kts 219°
2026-04-25 14:32 43.34310 16.73489 2777 ft 123 kts 219°
2026-04-25 14:32 43.33643 16.72866 2805 ft 111 kts 219°
2026-04-25 14:33 43.33024 16.72264 2692 ft 106 kts 220°
2026-04-25 14:33 43.32414 16.71671 2545 ft 108 kts 218°
2026-04-25 14:33 43.31822 16.71097 2415 ft 101 kts 217°
2026-04-25 14:33 43.31248 16.70546 2272 ft 100 kts 216°
2026-04-25 14:34 43.30680 16.70000 2131 ft 98 kts 216°
2026-04-25 14:34 43.30146 16.69481 2001 ft 86 kts 214°
2026-04-25 14:34 43.29678 16.69032 1912 ft 83 kts 212°
2026-04-25 14:34 43.29197 16.68572 1803 ft 84 kts 213°
2026-04-25 14:35 43.28738 16.68134 1726 ft 67 kts 212°
2026-04-25 14:35 43.28469 16.67874 1746 ft 29 kts 214°
2026-04-25 14:35 43.28426 16.67829 1744 ft 6 kts 29°
2026-04-25 14:35 43.28501 16.67906 1744 ft 18 kts 35°
2026-04-25 14:36 43.28625 16.68024 1734 ft 24 kts 33°
2026-04-25 14:36 43.28722 16.68043 1730 ft 14 kts 311°
2026-04-25 14:36 43.28768 16.67959 1731 ft 7 kts 304°
2026-04-25 14:36 43.28814 16.67972 1729 ft 10 kts 23°
2026-04-25 14:37 43.28871 16.68019 1724 ft 10 kts 36°
2026-04-25 14:37 43.28875 16.68042 1723 ft 0 kts 123°